1CL6 weather

Lake Park Helistop
Sacramento, California, United States

Public forecast

Using degrees Fahrenheit for public forecast. Weather courtesy of forecast.io.

Closest aviation weather report (METAR) to Lake Park Helistop

Report is more than 6 hours old.

Closest report is Sacramento Mather Airport, 3.9 nm (7.2 km) E. Retrieved 2020/03/29 23:00 UTC (9 hours ago):

KMHR 292300Z 20004KT 10SM SCT043 18/04 A3009

Closest aviation forecast (TAF) to Lake Park Helistop

Closest forecast is Sacramento Mather Airport, 3.9 nm (7.2 km) E. Retrieved 2020/03/30 06:36 UTC (1 hour ago):

TAF KMHR 300533Z 3006/3106 16005KT P6SM BKN070 TEMPO 3013/3017 OVC015 FM301900 22008KT P6SM BKN060 BKN100 FM310300 26005KT P6SM OVC050 AMD NOT SKED